sensor_id;sensor_type;location;lat;lon;timestamp;P1;durP1;ratioP1;P2;durP2;ratioP2
21018;SDS011;10667;51.056;3.732;2023-04-24T00:00:03;32.25;;;15.60;;
21018;SDS011;10667;51.056;3.732;2023-04-24T00:02:34;26.05;;;15.98;;
21018;SDS011;10667;51.056;3.732;2023-04-24T00:05:02;26.38;;;16.52;;
21018;SDS011;10667;51.056;3.732;2023-04-24T00:07:29;28.48;;;16.92;;
21018;SDS011;10667;51.056;3.732;2023-04-24T00:09:55;25.77;;;16.95;;
21018;SDS011;10667;51.056;3.732;2023-04-24T00:12:21;28.48;;;16.00;;
21018;SDS011;10667;51.056;3.732;2023-04-24T00:14:46;28.90;;;17.25;;
21018;SDS011;10667;51.056;3.732;2023-04-24T00:17:12;24.40;;;16.33;;
21018;SDS011;10667;51.056;3.732;2023-04-24T00:19:38;27.98;;;15.63;;
21018;SDS011;10667;51.056;3.732;2023-04-24T00:22:04;29.50;;;16.17;;
21018;SDS011;10667;51.056;3.732;2023-04-24T00:24:30;24.95;;;15.43;;
21018;SDS011;10667;51.056;3.732;2023-04-24T00:26:56;23.77;;;15.30;;
21018;SDS011;10667;51.056;3.732;2023-04-24T00:29:21;23.33;;;15.77;;
21018;SDS011;10667;51.056;3.732;2023-04-24T00:31:47;19.65;;;14.75;;
21018;SDS011;10667;51.056;3.732;2023-04-24T00:34:13;27.80;;;14.82;;
21018;SDS011;10667;51.056;3.732;2023-04-24T00:36:39;20.65;;;13.23;;
21018;SDS011;10667;51.056;3.732;2023-04-24T00:39:05;19.95;;;14.32;;
21018;SDS011;10667;51.056;3.732;2023-04-24T00:41:33;20.42;;;13.90;;
21018;SDS011;10667;51.056;3.732;2023-04-24T00:44:00;18.98;;;14.07;;
21018;SDS011;10667;51.056;3.732;2023-04-24T00:46:25;21.20;;;13.57;;
21018;SDS011;10667;51.056;3.732;2023-04-24T00:48:51;16.95;;;12.82;;
21018;SDS011;10667;51.056;3.732;2023-04-24T00:51:17;15.50;;;11.93;;
21018;SDS011;10667;51.056;3.732;2023-04-24T00:53:43;15.45;;;11.30;;
21018;SDS011;10667;51.056;3.732;2023-04-24T00:56:09;13.77;;;10.55;;
21018;SDS011;10667;51.056;3.732;2023-04-24T00:58:35;14.73;;;10.60;;
21018;SDS011;10667;51.056;3.732;2023-04-24T01:01:00;14.65;;;9.90;;
21018;SDS011;10667;51.056;3.732;2023-04-24T01:03:28;16.40;;;10.73;;
21018;SDS011;10667;51.056;3.732;2023-04-24T01:05:57;13.00;;;9.68;;
21018;SDS011;10667;51.056;3.732;2023-04-24T01:08:23;16.50;;;10.63;;
21018;SDS011;10667;51.056;3.732;2023-04-24T01:10:51;12.02;;;10.30;;
21018;SDS011;10667;51.056;3.732;2023-04-24T01:13:18;15.18;;;11.40;;
21018;SDS011;10667;51.056;3.732;2023-04-24T01:15:45;15.05;;;11.77;;
21018;SDS011;10667;51.056;3.732;2023-04-24T01:18:11;14.82;;;11.10;;
21018;SDS011;10667;51.056;3.732;2023-04-24T01:20:37;19.38;;;11.60;;
21018;SDS011;10667;51.056;3.732;2023-04-24T01:23:05;13.60;;;11.45;;
21018;SDS011;10667;51.056;3.732;2023-04-24T01:25:32;17.02;;;11.18;;
21018;SDS011;10667;51.056;3.732;2023-04-24T01:27:58;13.18;;;11.00;;
21018;SDS011;10667;51.056;3.732;2023-04-24T01:30:24;14.93;;;11.27;;
21018;SDS011;10667;51.056;3.732;2023-04-24T01:32:51;14.25;;;11.23;;
21018;SDS011;10667;51.056;3.732;2023-04-24T01:35:17;14.88;;;11.60;;
21018;SDS011;10667;51.056;3.732;2023-04-24T01:37:43;15.77;;;11.90;;
21018;SDS011;10667;51.056;3.732;2023-04-24T01:40:09;16.73;;;12.98;;
21018;SDS011;10667;51.056;3.732;2023-04-24T01:42:35;15.35;;;12.43;;
21018;SDS011;10667;51.056;3.732;2023-04-24T01:45:01;19.45;;;12.77;;
21018;SDS011;10667;51.056;3.732;2023-04-24T01:47:28;18.73;;;15.05;;
21018;SDS011;10667;51.056;3.732;2023-04-24T01:49:55;19.15;;;14.98;;
21018;SDS011;10667;51.056;3.732;2023-04-24T01:52:21;19.15;;;14.73;;
21018;SDS011;10667;51.056;3.732;2023-04-24T01:54:46;20.27;;;14.40;;
21018;SDS011;10667;51.056;3.732;2023-04-24T01:57:13;18.98;;;14.65;;
21018;SDS011;10667;51.056;3.732;2023-04-24T01:59:39;19.88;;;15.23;;
21018;SDS011;10667;51.056;3.732;2023-04-24T02:02:05;19.55;;;15.15;;
21018;SDS011;10667;51.056;3.732;2023-04-24T02:04:31;20.20;;;15.80;;
21018;SDS011;10667;51.056;3.732;2023-04-24T02:06:57;20.33;;;16.02;;
21018;SDS011;10667;51.056;3.732;2023-04-24T02:09:22;22.05;;;16.85;;
21018;SDS011;10667;51.056;3.732;2023-04-24T02:11:48;21.65;;;16.00;;
21018;SDS011;10667;51.056;3.732;2023-04-24T02:14:13;22.33;;;15.98;;
21018;SDS011;10667;51.056;3.732;2023-04-24T02:16:39;20.20;;;15.95;;
21018;SDS011;10667;51.056;3.732;2023-04-24T02:19:05;19.65;;;15.82;;
21018;SDS011;10667;51.056;3.732;2023-04-24T02:21:31;22.25;;;16.27;;
21018;SDS011;10667;51.056;3.732;2023-04-24T02:23:57;22.38;;;17.08;;
21018;SDS011;10667;51.056;3.732;2023-04-24T02:26:23;21.73;;;17.00;;
21018;SDS011;10667;51.056;3.732;2023-04-24T02:28:48;23.48;;;17.05;;
21018;SDS011;10667;51.056;3.732;2023-04-24T02:31:14;22.85;;;15.68;;
21018;SDS011;10667;51.056;3.732;2023-04-24T02:33:40;20.88;;;16.73;;
21018;SDS011;10667;51.056;3.732;2023-04-24T02:36:05;21.92;;;17.33;;
21018;SDS011;10667;51.056;3.732;2023-04-24T02:38:31;21.77;;;16.75;;
21018;SDS011;10667;51.056;3.732;2023-04-24T02:40:57;19.45;;;16.08;;
21018;SDS011;10667;51.056;3.732;2023-04-24T02:43:23;21.00;;;15.85;;
21018;SDS011;10667;51.056;3.732;2023-04-24T02:45:48;18.23;;;13.40;;
21018;SDS011;10667;51.056;3.732;2023-04-24T02:48:14;19.30;;;13.82;;
21018;SDS011;10667;51.056;3.732;2023-04-24T02:50:40;19.08;;;12.68;;
21018;SDS011;10667;51.056;3.732;2023-04-24T02:53:06;18.67;;;11.00;;
21018;SDS011;10667;51.056;3.732;2023-04-24T02:55:31;18.67;;;10.18;;
21018;SDS011;10667;51.056;3.732;2023-04-24T02:57:57;12.70;;;7.30;;
21018;SDS011;10667;51.056;3.732;2023-04-24T03:00:23;12.98;;;6.65;;
21018;SDS011;10667;51.056;3.732;2023-04-24T03:02:48;16.67;;;6.53;;
21018;SDS011;10667;51.056;3.732;2023-04-24T03:05:14;11.07;;;6.47;;
21018;SDS011;10667;51.056;3.732;2023-04-24T03:07:40;14.70;;;6.30;;
21018;SDS011;10667;51.056;3.732;2023-04-24T03:10:06;12.93;;;6.53;;
21018;SDS011;10667;51.056;3.732;2023-04-24T03:12:32;12.88;;;6.47;;
21018;SDS011;10667;51.056;3.732;2023-04-24T03:14:58;16.38;;;6.78;;
21018;SDS011;10667;51.056;3.732;2023-04-24T03:17:24;15.65;;;6.93;;
21018;SDS011;10667;51.056;3.732;2023-04-24T03:19:50;15.95;;;7.10;;
21018;SDS011;10667;51.056;3.732;2023-04-24T03:22:15;14.77;;;6.80;;
21018;SDS011;10667;51.056;3.732;2023-04-24T03:24:41;17.75;;;8.48;;
21018;SDS011;10667;51.056;3.732;2023-04-24T03:27:07;15.18;;;7.72;;
21018;SDS011;10667;51.056;3.732;2023-04-24T03:29:32;17.35;;;9.60;;
21018;SDS011;10667;51.056;3.732;2023-04-24T03:31:58;21.17;;;10.85;;
21018;SDS011;10667;51.056;3.732;2023-04-24T03:34:24;19.60;;;11.77;;
21018;SDS011;10667;51.056;3.732;2023-04-24T03:36:49;19.73;;;11.85;;
21018;SDS011;10667;51.056;3.732;2023-04-24T03:39:15;22.13;;;11.85;;
21018;SDS011;10667;51.056;3.732;2023-04-24T03:41:41;24.35;;;13.02;;
21018;SDS011;10667;51.056;3.732;2023-04-24T03:44:07;22.27;;;14.20;;
21018;SDS011;10667;51.056;3.732;2023-04-24T03:46:32;25.38;;;12.60;;
21018;SDS011;10667;51.056;3.732;2023-04-24T03:48:58;26.75;;;13.85;;
21018;SDS011;10667;51.056;3.732;2023-04-24T03:51:24;23.98;;;14.07;;
21018;SDS011;10667;51.056;3.732;2023-04-24T03:53:50;22.88;;;14.70;;
21018;SDS011;10667;51.056;3.732;2023-04-24T03:56:16;26.05;;;14.93;;
21018;SDS011;10667;51.056;3.732;2023-04-24T03:58:41;28.80;;;16.48;;
21018;SDS011;10667;51.056;3.732;2023-04-24T04:01:07;35.55;;;15.85;;
21018;SDS011;10667;51.056;3.732;2023-04-24T04:03:33;30.85;;;15.93;;
21018;SDS011;10667;51.056;3.732;2023-04-24T04:05:59;29.55;;;16.88;;
21018;SDS011;10667;51.056;3.732;2023-04-24T04:08:25;25.58;;;14.80;;
21018;SDS011;10667;51.056;3.732;2023-04-24T04:10:50;30.23;;;15.95;;
21018;SDS011;10667;51.056;3.732;2023-04-24T04:13:16;32.20;;;16.10;;
21018;SDS011;10667;51.056;3.732;2023-04-24T04:15:42;30.00;;;16.17;;
21018;SDS011;10667;51.056;3.732;2023-04-24T04:18:07;29.40;;;15.77;;
21018;SDS011;10667;51.056;3.732;2023-04-24T04:20:33;27.33;;;15.70;;
21018;SDS011;10667;51.056;3.732;2023-04-24T04:22:59;28.05;;;15.57;;
21018;SDS011;10667;51.056;3.732;2023-04-24T04:25:25;30.88;;;16.08;;
21018;SDS011;10667;51.056;3.732;2023-04-24T04:27:50;29.10;;;14.35;;
21018;SDS011;10667;51.056;3.732;2023-04-24T04:30:17;23.92;;;14.35;;
21018;SDS011;10667;51.056;3.732;2023-04-24T04:32:43;35.72;;;15.07;;
21018;SDS011;10667;51.056;3.732;2023-04-24T04:35:09;33.90;;;15.38;;
21018;SDS011;10667;51.056;3.732;2023-04-24T04:37:35;28.30;;;15.10;;
21018;SDS011;10667;51.056;3.732;2023-04-24T04:40:01;26.25;;;14.25;;
21018;SDS011;10667;51.056;3.732;2023-04-24T04:42:37;25.85;;;14.73;;
21018;SDS011;10667;51.056;3.732;2023-04-24T04:45:07;21.73;;;13.85;;
21018;SDS011;10667;51.056;3.732;2023-04-24T04:47:36;23.85;;;14.40;;
21018;SDS011;10667;51.056;3.732;2023-04-24T04:50:02;23.38;;;13.18;;
21018;SDS011;10667;51.056;3.732;2023-04-24T04:52:30;22.77;;;13.50;;
21018;SDS011;10667;51.056;3.732;2023-04-24T04:54:56;26.80;;;14.15;;
21018;SDS011;10667;51.056;3.732;2023-04-24T04:57:22;27.90;;;14.25;;
21018;SDS011;10667;51.056;3.732;2023-04-24T04:59:47;23.77;;;13.02;;
21018;SDS011;10667;51.056;3.732;2023-04-24T05:02:13;24.85;;;13.25;;
21018;SDS011;10667;51.056;3.732;2023-04-24T05:04:39;19.17;;;13.07;;
21018;SDS011;10667;51.056;3.732;2023-04-24T05:07:05;28.77;;;14.68;;
21018;SDS011;10667;51.056;3.732;2023-04-24T05:09:31;27.60;;;14.40;;
21018;SDS011;10667;51.056;3.732;2023-04-24T05:11:57;29.80;;;14.40;;
21018;SDS011;10667;51.056;3.732;2023-04-24T05:14:22;21.35;;;13.38;;
21018;SDS011;10667;51.056;3.732;2023-04-24T05:16:48;29.00;;;14.35;;
21018;SDS011;10667;51.056;3.732;2023-04-24T05:19:14;24.10;;;15.75;;
21018;SDS011;10667;51.056;3.732;2023-04-24T05:21:40;24.63;;;15.52;;
21018;SDS011;10667;51.056;3.732;2023-04-24T05:24:06;32.97;;;16.85;;
21018;SDS011;10667;51.056;3.732;2023-04-24T05:26:32;27.42;;;15.70;;
21018;SDS011;10667;51.056;3.732;2023-04-24T05:28:57;26.25;;;15.18;;
21018;SDS011;10667;51.056;3.732;2023-04-24T05:31:23;26.05;;;15.10;;
21018;SDS011;10667;51.056;3.732;2023-04-24T05:33:50;27.35;;;16.25;;
21018;SDS011;10667;51.056;3.732;2023-04-24T05:36:15;25.48;;;16.17;;
21018;SDS011;10667;51.056;3.732;2023-04-24T05:38:41;28.25;;;16.73;;
21018;SDS011;10667;51.056;3.732;2023-04-24T05:41:07;28.38;;;15.80;;
21018;SDS011;10667;51.056;3.732;2023-04-24T05:43:32;29.30;;;16.58;;
21018;SDS011;10667;51.056;3.732;2023-04-24T05:45:58;27.67;;;16.33;;
21018;SDS011;10667;51.056;3.732;2023-04-24T05:48:25;29.65;;;17.35;;
21018;SDS011;10667;51.056;3.732;2023-04-24T05:50:51;28.17;;;15.63;;
21018;SDS011;10667;51.056;3.732;2023-04-24T05:53:17;31.58;;;17.20;;
21018;SDS011;10667;51.056;3.732;2023-04-24T05:55:43;28.45;;;16.80;;
21018;SDS011;10667;51.056;3.732;2023-04-24T05:58:09;26.30;;;16.20;;
21018;SDS011;10667;51.056;3.732;2023-04-24T06:00:35;31.27;;;18.52;;
21018;SDS011;10667;51.056;3.732;2023-04-24T06:03:01;32.42;;;17.30;;
21018;SDS011;10667;51.056;3.732;2023-04-24T06:05:28;34.78;;;18.10;;
21018;SDS011;10667;51.056;3.732;2023-04-24T06:07:55;36.03;;;18.48;;
21018;SDS011;10667;51.056;3.732;2023-04-24T06:10:21;38.78;;;20.13;;
21018;SDS011;10667;51.056;3.732;2023-04-24T06:12:46;31.88;;;18.83;;
21018;SDS011;10667;51.056;3.732;2023-04-24T06:15:12;36.35;;;18.45;;
21018;SDS011;10667;51.056;3.732;2023-04-24T06:17:38;34.17;;;20.10;;
21018;SDS011;10667;51.056;3.732;2023-04-24T06:20:03;35.58;;;18.85;;
21018;SDS011;10667;51.056;3.732;2023-04-24T06:22:31;42.65;;;18.70;;
21018;SDS011;10667;51.056;3.732;2023-04-24T06:24:56;37.20;;;18.95;;
21018;SDS011;10667;51.056;3.732;2023-04-24T06:27:22;39.78;;;17.88;;
21018;SDS011;10667;51.056;3.732;2023-04-24T06:29:47;35.38;;;18.08;;
21018;SDS011;10667;51.056;3.732;2023-04-24T06:32:19;32.83;;;18.25;;
21018;SDS011;10667;51.056;3.732;2023-04-24T06:34:49;32.47;;;16.98;;
21018;SDS011;10667;51.056;3.732;2023-04-24T06:37:16;27.30;;;15.43;;
21018;SDS011;10667;51.056;3.732;2023-04-24T06:39:41;24.98;;;14.90;;
21018;SDS011;10667;51.056;3.732;2023-04-24T06:42:07;30.30;;;15.18;;
21018;SDS011;10667;51.056;3.732;2023-04-24T06:44:34;26.75;;;14.43;;
21018;SDS011;10667;51.056;3.732;2023-04-24T06:47:05;34.05;;;15.10;;
21018;SDS011;10667;51.056;3.732;2023-04-24T06:49:33;31.85;;;14.73;;
21018;SDS011;10667;51.056;3.732;2023-04-24T06:51:59;26.27;;;13.65;;
21018;SDS011;10667;51.056;3.732;2023-04-24T06:54:25;30.17;;;14.45;;
21018;SDS011;10667;51.056;3.732;2023-04-24T06:56:50;29.30;;;14.63;;
21018;SDS011;10667;51.056;3.732;2023-04-24T06:59:17;33.65;;;14.88;;
21018;SDS011;10667;51.056;3.732;2023-04-24T07:01:42;29.63;;;14.63;;
21018;SDS011;10667;51.056;3.732;2023-04-24T07:04:08;34.35;;;13.13;;
21018;SDS011;10667;51.056;3.732;2023-04-24T07:06:34;37.08;;;13.90;;
21018;SDS011;10667;51.056;3.732;2023-04-24T07:09:01;26.27;;;13.05;;
21018;SDS011;10667;51.056;3.732;2023-04-24T07:11:28;27.33;;;11.60;;
21018;SDS011;10667;51.056;3.732;2023-04-24T07:13:54;25.02;;;11.73;;
21018;SDS011;10667;51.056;3.732;2023-04-24T07:16:20;26.40;;;11.25;;
21018;SDS011;10667;51.056;3.732;2023-04-24T07:18:46;23.27;;;9.52;;
21018;SDS011;10667;51.056;3.732;2023-04-24T07:21:12;25.35;;;9.80;;
21018;SDS011;10667;51.056;3.732;2023-04-24T07:23:37;22.58;;;8.73;;
21018;SDS011;10667;51.056;3.732;2023-04-24T07:26:03;25.75;;;9.05;;
21018;SDS011;10667;51.056;3.732;2023-04-24T07:28:29;18.05;;;9.15;;
21018;SDS011;10667;51.056;3.732;2023-04-24T07:30:56;22.85;;;8.85;;
21018;SDS011;10667;51.056;3.732;2023-04-24T07:33:23;19.90;;;8.45;;
21018;SDS011;10667;51.056;3.732;2023-04-24T07:35:49;20.35;;;8.82;;
21018;SDS011;10667;51.056;3.732;2023-04-24T07:38:15;20.88;;;8.68;;
21018;SDS011;10667;51.056;3.732;2023-04-24T07:40:41;24.77;;;11.45;;
21018;SDS011;10667;51.056;3.732;2023-04-24T07:43:06;20.25;;;9.30;;
21018;SDS011;10667;51.056;3.732;2023-04-24T07:45:32;20.45;;;9.93;;
21018;SDS011;10667;51.056;3.732;2023-04-24T07:48:01;22.80;;;8.55;;
21018;SDS011;10667;51.056;3.732;2023-04-24T07:50:26;18.38;;;8.73;;
21018;SDS011;10667;51.056;3.732;2023-04-24T07:52:52;24.17;;;9.15;;
21018;SDS011;10667;51.056;3.732;2023-04-24T07:55:18;19.75;;;8.38;;
21018;SDS011;10667;51.056;3.732;2023-04-24T07:57:43;20.50;;;9.35;;
21018;SDS011;10667;51.056;3.732;2023-04-24T08:00:09;26.75;;;8.77;;
21018;SDS011;10667;51.056;3.732;2023-04-24T08:02:35;23.88;;;8.48;;
21018;SDS011;10667;51.056;3.732;2023-04-24T08:05:01;18.83;;;8.40;;
21018;SDS011;10667;51.056;3.732;2023-04-24T08:07:28;25.67;;;9.18;;
21018;SDS011;10667;51.056;3.732;2023-04-24T08:09:54;20.80;;;9.05;;
21018;SDS011;10667;51.056;3.732;2023-04-24T08:12:20;19.48;;;9.65;;
21018;SDS011;10667;51.056;3.732;2023-04-24T08:14:45;25.20;;;8.73;;
21018;SDS011;10667;51.056;3.732;2023-04-24T08:17:11;16.35;;;8.60;;
21018;SDS011;10667;51.056;3.732;2023-04-24T08:19:37;15.43;;;7.95;;
21018;SDS011;10667;51.056;3.732;2023-04-24T08:22:02;15.98;;;6.90;;
21018;SDS011;10667;51.056;3.732;2023-04-24T08:24:29;13.25;;;6.78;;
21018;SDS011;10667;51.056;3.732;2023-04-24T08:26:55;13.43;;;7.18;;
21018;SDS011;10667;51.056;3.732;2023-04-24T08:29:22;15.20;;;6.57;;
21018;SDS011;10667;51.056;3.732;2023-04-24T08:31:48;17.60;;;6.72;;
21018;SDS011;10667;51.056;3.732;2023-04-24T08:34:14;12.05;;;5.85;;
21018;SDS011;10667;51.056;3.732;2023-04-24T08:36:40;14.98;;;5.35;;
21018;SDS011;10667;51.056;3.732;2023-04-24T08:39:06;13.93;;;5.50;;
21018;SDS011;10667;51.056;3.732;2023-04-24T08:41:31;16.52;;;5.65;;
21018;SDS011;10667;51.056;3.732;2023-04-24T08:43:59;17.80;;;6.35;;
21018;SDS011;10667;51.056;3.732;2023-04-24T08:46:27;14.75;;;5.40;;
21018;SDS011;10667;51.056;3.732;2023-04-24T08:48:54;15.57;;;5.95;;
21018;SDS011;10667;51.056;3.732;2023-04-24T08:51:21;24.23;;;6.07;;
21018;SDS011;10667;51.056;3.732;2023-04-24T08:53:49;23.60;;;6.47;;
21018;SDS011;10667;51.056;3.732;2023-04-24T08:56:18;15.55;;;5.35;;
21018;SDS011;10667;51.056;3.732;2023-04-24T08:58:45;14.98;;;5.78;;
21018;SDS011;10667;51.056;3.732;2023-04-24T09:01:11;15.25;;;4.90;;
21018;SDS011;10667;51.056;3.732;2023-04-24T09:03:38;13.88;;;5.70;;
21018;SDS011;10667;51.056;3.732;2023-04-24T09:06:04;15.20;;;6.40;;
21018;SDS011;10667;51.056;3.732;2023-04-24T09:08:33;17.08;;;6.13;;
21018;SDS011;10667;51.056;3.732;2023-04-24T09:10:59;16.02;;;6.88;;
21018;SDS011;10667;51.056;3.732;2023-04-24T09:13:27;12.73;;;6.03;;
21018;SDS011;10667;51.056;3.732;2023-04-24T09:15:53;13.48;;;6.00;;
21018;SDS011;10667;51.056;3.732;2023-04-24T09:18:19;14.93;;;5.82;;
21018;SDS011;10667;51.056;3.732;2023-04-24T09:21:06;13.32;;;5.97;;
21018;SDS011;10667;51.056;3.732;2023-04-24T09:23:33;12.40;;;6.43;;
21018;SDS011;10667;51.056;3.732;2023-04-24T09:25:59;16.55;;;7.03;;
21018;SDS011;10667;51.056;3.732;2023-04-24T09:28:30;11.70;;;6.28;;
21018;SDS011;10667;51.056;3.732;2023-04-24T09:31:07;9.93;;;6.13;;
21018;SDS011;10667;51.056;3.732;2023-04-24T09:34:02;17.85;;;6.85;;
21018;SDS011;10667;51.056;3.732;2023-04-24T09:36:31;12.35;;;6.35;;
21018;SDS011;10667;51.056;3.732;2023-04-24T09:38:59;12.30;;;6.03;;
21018;SDS011;10667;51.056;3.732;2023-04-24T09:41:26;15.65;;;7.00;;
21018;SDS011;10667;51.056;3.732;2023-04-24T09:43:56;20.75;;;6.75;;
21018;SDS011;10667;51.056;3.732;2023-04-24T09:46:29;12.00;;;6.13;;
21018;SDS011;10667;51.056;3.732;2023-04-24T09:49:04;19.27;;;6.43;;
21018;SDS011;10667;51.056;3.732;2023-04-24T09:51:38;14.38;;;6.53;;
21018;SDS011;10667;51.056;3.732;2023-04-24T09:54:04;16.63;;;6.32;;
21018;SDS011;10667;51.056;3.732;2023-04-24T09:56:38;15.63;;;6.22;;
21018;SDS011;10667;51.056;3.732;2023-04-24T09:59:09;13.73;;;5.78;;
21018;SDS011;10667;51.056;3.732;2023-04-24T10:01:34;11.27;;;5.55;;
21018;SDS011;10667;51.056;3.732;2023-04-24T10:04:01;13.32;;;5.60;;
21018;SDS011;10667;51.056;3.732;2023-04-24T10:06:32;10.45;;;5.20;;
21018;SDS011;10667;51.056;3.732;2023-04-24T10:08:58;15.23;;;6.35;;
21018;SDS011;10667;51.056;3.732;2023-04-24T10:11:27;15.55;;;6.32;;
21018;SDS011;10667;51.056;3.732;2023-04-24T10:13:53;8.85;;;5.30;;
21018;SDS011;10667;51.056;3.732;2023-04-24T10:16:20;15.73;;;6.32;;
21018;SDS011;10667;51.056;3.732;2023-04-24T10:18:47;15.18;;;6.15;;
21018;SDS011;10667;51.056;3.732;2023-04-24T10:21:14;12.57;;;5.30;;
21018;SDS011;10667;51.056;3.732;2023-04-24T10:23:41;11.32;;;5.40;;
21018;SDS011;10667;51.056;3.732;2023-04-24T10:26:09;11.40;;;4.88;;
21018;SDS011;10667;51.056;3.732;2023-04-24T10:28:36;13.10;;;5.50;;
21018;SDS011;10667;51.056;3.732;2023-04-24T10:31:02;12.13;;;4.80;;
21018;SDS011;10667;51.056;3.732;2023-04-24T10:33:29;11.82;;;5.47;;
21018;SDS011;10667;51.056;3.732;2023-04-24T10:35:56;10.15;;;5.40;;
21018;SDS011;10667;51.056;3.732;2023-04-24T10:38:24;14.23;;;5.22;;
21018;SDS011;10667;51.056;3.732;2023-04-24T10:40:51;9.38;;;4.93;;
21018;SDS011;10667;51.056;3.732;2023-04-24T10:43:32;13.30;;;5.68;;
21018;SDS011;10667;51.056;3.732;2023-04-24T10:46:02;11.20;;;5.63;;
21018;SDS011;10667;51.056;3.732;2023-04-24T10:48:28;12.55;;;5.53;;
21018;SDS011;10667;51.056;3.732;2023-04-24T10:50:54;8.43;;;4.93;;
21018;SDS011;10667;51.056;3.732;2023-04-24T10:53:24;11.40;;;5.28;;
21018;SDS011;10667;51.056;3.732;2023-04-24T10:55:57;13.73;;;5.10;;
21018;SDS011;10667;51.056;3.732;2023-04-24T10:58:44;16.85;;;4.78;;
21018;SDS011;10667;51.056;3.732;2023-04-24T11:01:30;9.80;;;5.13;;
21018;SDS011;10667;51.056;3.732;2023-04-24T11:04:01;9.65;;;4.85;;
21018;SDS011;10667;51.056;3.732;2023-04-24T11:06:29;8.05;;;5.05;;
21018;SDS011;10667;51.056;3.732;2023-04-24T11:09:06;9.32;;;4.60;;
21018;SDS011;10667;51.056;3.732;2023-04-24T11:11:34;8.00;;;4.50;;
21018;SDS011;10667;51.056;3.732;2023-04-24T11:14:01;9.73;;;4.88;;
21018;SDS011;10667;51.056;3.732;2023-04-24T11:16:47;12.05;;;5.03;;
21018;SDS011;10667;51.056;3.732;2023-04-24T11:19:18;12.07;;;4.93;;
21018;SDS011;10667;51.056;3.732;2023-04-24T11:22:00;11.77;;;5.40;;
21018;SDS011;10667;51.056;3.732;2023-04-24T11:26:56;8.95;;;4.70;;
21018;SDS011;10667;51.056;3.732;2023-04-24T11:32:18;12.27;;;5.13;;
21018;SDS011;10667;51.056;3.732;2023-04-24T11:34:57;11.55;;;5.05;;
21018;SDS011;10667;51.056;3.732;2023-04-24T11:37:25;8.57;;;4.70;;
21018;SDS011;10667;51.056;3.732;2023-04-24T11:39:53;13.27;;;5.28;;
21018;SDS011;10667;51.056;3.732;2023-04-24T11:42:21;15.02;;;4.90;;
21018;SDS011;10667;51.056;3.732;2023-04-24T11:44:48;7.65;;;3.65;;
21018;SDS011;10667;51.056;3.732;2023-04-24T11:47:15;8.43;;;4.05;;
21018;SDS011;10667;51.056;3.732;2023-04-24T11:49:41;9.48;;;3.90;;
21018;SDS011;10667;51.056;3.732;2023-04-24T11:52:06;8.80;;;3.33;;
21018;SDS011;10667;51.056;3.732;2023-04-24T11:54:32;14.23;;;4.30;;
21018;SDS011;10667;51.056;3.732;2023-04-24T11:56:58;12.40;;;3.85;;
21018;SDS011;10667;51.056;3.732;2023-04-24T11:59:24;6.85;;;3.75;;
21018;SDS011;10667;51.056;3.732;2023-04-24T12:01:50;9.77;;;4.00;;
21018;SDS011;10667;51.056;3.732;2023-04-24T12:04:16;7.22;;;3.40;;
21018;SDS011;10667;51.056;3.732;2023-04-24T12:07:01;10.50;;;3.97;;
21018;SDS011;10667;51.056;3.732;2023-04-24T12:09:28;11.40;;;3.75;;
21018;SDS011;10667;51.056;3.732;2023-04-24T12:11:54;5.82;;;3.55;;
21018;SDS011;10667;51.056;3.732;2023-04-24T12:14:22;6.88;;;3.40;;
21018;SDS011;10667;51.056;3.732;2023-04-24T12:16:48;10.45;;;3.55;;
21018;SDS011;10667;51.056;3.732;2023-04-24T12:19:20;8.18;;;3.47;;
21018;SDS011;10667;51.056;3.732;2023-04-24T12:21:58;8.00;;;3.38;;
21018;SDS011;10667;51.056;3.732;2023-04-24T12:24:28;9.77;;;3.95;;
21018;SDS011;10667;51.056;3.732;2023-04-24T12:26:55;5.55;;;3.50;;
21018;SDS011;10667;51.056;3.732;2023-04-24T12:29:23;4.32;;;2.92;;
21018;SDS011;10667;51.056;3.732;2023-04-24T12:31:50;7.95;;;3.30;;
21018;SDS011;10667;51.056;3.732;2023-04-24T12:34:20;6.90;;;3.22;;
21018;SDS011;10667;51.056;3.732;2023-04-24T12:36:46;8.38;;;2.63;;
21018;SDS011;10667;51.056;3.732;2023-04-24T12:39:19;6.05;;;2.58;;
21018;SDS011;10667;51.056;3.732;2023-04-24T12:41:57;6.55;;;3.30;;
21018;SDS011;10667;51.056;3.732;2023-04-24T12:46:56;5.65;;;2.55;;
21018;SDS011;10667;51.056;3.732;2023-04-24T12:49:22;11.25;;;3.00;;
21018;SDS011;10667;51.056;3.732;2023-04-24T12:51:48;7.22;;;2.85;;
21018;SDS011;10667;51.056;3.732;2023-04-24T12:54:14;7.45;;;2.63;;
21018;SDS011;10667;51.056;3.732;2023-04-24T12:56:39;8.50;;;2.90;;
21018;SDS011;10667;51.056;3.732;2023-04-24T12:59:05;6.18;;;2.70;;
21018;SDS011;10667;51.056;3.732;2023-04-24T13:01:31;5.30;;;2.60;;
21018;SDS011;10667;51.056;3.732;2023-04-24T13:03:56;6.15;;;2.55;;
21018;SDS011;10667;51.056;3.732;2023-04-24T13:06:22;6.78;;;2.83;;
21018;SDS011;10667;51.056;3.732;2023-04-24T13:08:47;5.80;;;2.72;;
21018;SDS011;10667;51.056;3.732;2023-04-24T13:11:13;5.97;;;2.35;;
21018;SDS011;10667;51.056;3.732;2023-04-24T13:13:39;5.40;;;2.33;;
21018;SDS011;10667;51.056;3.732;2023-04-24T13:16:05;5.35;;;2.25;;
21018;SDS011;10667;51.056;3.732;2023-04-24T13:18:30;3.78;;;2.55;;
21018;SDS011;10667;51.056;3.732;2023-04-24T13:20:56;7.15;;;2.33;;
21018;SDS011;10667;51.056;3.732;2023-04-24T13:23:22;6.80;;;2.35;;
21018;SDS011;10667;51.056;3.732;2023-04-24T13:25:48;3.05;;;1.85;;
21018;SDS011;10667;51.056;3.732;2023-04-24T13:28:14;11.45;;;2.30;;
21018;SDS011;10667;51.056;3.732;2023-04-24T13:30:40;5.25;;;1.60;;
21018;SDS011;10667;51.056;3.732;2023-04-24T13:33:05;5.43;;;2.25;;
21018;SDS011;10667;51.056;3.732;2023-04-24T13:35:31;5.93;;;2.25;;
21018;SDS011;10667;51.056;3.732;2023-04-24T13:37:57;9.25;;;2.30;;
21018;SDS011;10667;51.056;3.732;2023-04-24T13:40:23;5.95;;;2.00;;
21018;SDS011;10667;51.056;3.732;2023-04-24T13:42:49;7.22;;;2.30;;
21018;SDS011;10667;51.056;3.732;2023-04-24T13:45:15;5.88;;;2.25;;
21018;SDS011;10667;51.056;3.732;2023-04-24T13:47:40;8.77;;;2.78;;
21018;SDS011;10667;51.056;3.732;2023-04-24T13:50:09;4.95;;;2.05;;
21018;SDS011;10667;51.056;3.732;2023-04-24T13:52:35;7.22;;;2.50;;
21018;SDS011;10667;51.056;3.732;2023-04-24T13:55:01;3.00;;;1.92;;
21018;SDS011;10667;51.056;3.732;2023-04-24T13:57:26;8.57;;;2.15;;
21018;SDS011;10667;51.056;3.732;2023-04-24T13:59:53;3.20;;;1.80;;
21018;SDS011;10667;51.056;3.732;2023-04-24T14:02:23;5.18;;;2.17;;
21018;SDS011;10667;51.056;3.732;2023-04-24T14:04:49;3.22;;;1.65;;
21018;SDS011;10667;51.056;3.732;2023-04-24T14:07:14;3.30;;;1.85;;
21018;SDS011;10667;51.056;3.732;2023-04-24T14:09:40;4.35;;;1.80;;
21018;SDS011;10667;51.056;3.732;2023-04-24T14:12:06;4.03;;;1.88;;
21018;SDS011;10667;51.056;3.732;2023-04-24T14:14:32;5.65;;;1.90;;
21018;SDS011;10667;51.056;3.732;2023-04-24T14:16:58;6.00;;;1.73;;
21018;SDS011;10667;51.056;3.732;2023-04-24T14:19:24;6.10;;;2.00;;
21018;SDS011;10667;51.056;3.732;2023-04-24T14:21:49;5.03;;;2.00;;
21018;SDS011;10667;51.056;3.732;2023-04-24T14:24:15;7.30;;;2.17;;
21018;SDS011;10667;51.056;3.732;2023-04-24T14:26:41;6.00;;;1.98;;
21018;SDS011;10667;51.056;3.732;2023-04-24T14:29:06;6.78;;;2.20;;
21018;SDS011;10667;51.056;3.732;2023-04-24T14:31:32;10.52;;;1.95;;
21018;SDS011;10667;51.056;3.732;2023-04-24T14:33:58;3.55;;;2.08;;
21018;SDS011;10667;51.056;3.732;2023-04-24T14:36:23;3.30;;;1.80;;